Terminal Aerodrome Forecast
Issued by NWS

Home | Current Version | Previous Version | Text Only | Print | Product List | Glossary Off
Versions: 1 2 3 4 5 6 7 8 9 10 11 12 13 14

000
FTUS43 KGRB 130500
TAFAUW
TAF
KAUW 130521Z 1306/1406 32004KT P6SM OVC025
      TEMPO 1306/1308 6SM -DZ BR SCT025 BKN050
     FM130800 30004KT 6SM BR SCT035 SCT070
      TEMPO 1308/1312 1SM BR
     FM131200 30003KT P6SM FEW040 SCT090
     FM132300 VRB03KT P6SM FEW100=

USA.gov is the U.S. government's official web portal to all federal, state and local government web resources and services.